17 Max
10 km/h
4 Mini

LFMY 190300Z AUTO 11009KT 080V140 CAVOK 17/11 Q1014

TAF LFMY 181626Z 1816/1915 CNL